sensor_id;sensor_type;location;lat;lon;timestamp;P1;durP1;ratioP1;P2;durP2;ratioP2
48098;SDS011;33877;47.444;18.934;2022-10-22T00:01:19;14.02;;;8.55;;
48098;SDS011;33877;47.444;18.934;2022-10-22T00:03:51;18.62;;;9.57;;
48098;SDS011;33877;47.444;18.934;2022-10-22T00:06:21;14.52;;;8.80;;
48098;SDS011;33877;47.444;18.934;2022-10-22T00:08:53;16.37;;;8.60;;
48098;SDS011;33877;47.444;18.934;2022-10-22T00:11:23;16.87;;;8.90;;
48098;SDS011;33877;47.444;18.934;2022-10-22T00:13:54;14.52;;;8.73;;
48098;SDS011;33877;47.444;18.934;2022-10-22T00:16:25;12.95;;;8.80;;
48098;SDS011;33877;47.444;18.934;2022-10-22T00:18:55;15.23;;;8.23;;
48098;SDS011;33877;47.444;18.934;2022-10-22T00:21:24;18.75;;;9.45;;
48098;SDS011;33877;47.444;18.934;2022-10-22T00:23:58;14.43;;;8.95;;
48098;SDS011;33877;47.444;18.934;2022-10-22T00:26:27;12.00;;;7.78;;
48098;SDS011;33877;47.444;18.934;2022-10-22T00:28:59;14.73;;;8.07;;
48098;SDS011;33877;47.444;18.934;2022-10-22T00:31:29;16.17;;;8.73;;
48098;SDS011;33877;47.444;18.934;2022-10-22T00:34:02;14.20;;;8.10;;
48098;SDS011;33877;47.444;18.934;2022-10-22T00:36:33;12.80;;;7.57;;
48098;SDS011;33877;47.444;18.934;2022-10-22T00:39:05;17.23;;;8.48;;
48098;SDS011;33877;47.444;18.934;2022-10-22T00:41:34;14.10;;;8.25;;
48098;SDS011;33877;47.444;18.934;2022-10-22T00:44:05;14.50;;;8.35;;
48098;SDS011;33877;47.444;18.934;2022-10-22T00:46:37;15.02;;;8.25;;
48098;SDS011;33877;47.444;18.934;2022-10-22T00:49:09;15.10;;;8.07;;
48098;SDS011;33877;47.444;18.934;2022-10-22T00:51:37;14.57;;;7.82;;
48098;SDS011;33877;47.444;18.934;2022-10-22T00:54:09;12.50;;;7.72;;
48098;SDS011;33877;47.444;18.934;2022-10-22T00:56:40;12.13;;;7.30;;
48098;SDS011;33877;47.444;18.934;2022-10-22T00:59:12;10.98;;;7.28;;
48098;SDS011;33877;47.444;18.934;2022-10-22T01:01:42;11.65;;;7.70;;
48098;SDS011;33877;47.444;18.934;2022-10-22T01:04:13;13.27;;;8.45;;
48098;SDS011;33877;47.444;18.934;2022-10-22T01:06:42;16.62;;;8.88;;
48098;SDS011;33877;47.444;18.934;2022-10-22T01:09:31;16.40;;;8.48;;
48098;SDS011;33877;47.444;18.934;2022-10-22T01:14:54;18.15;;;8.77;;
48098;SDS011;33877;47.444;18.934;2022-10-22T01:17:48;14.55;;;8.18;;
48098;SDS011;33877;47.444;18.934;2022-10-22T01:23:42;13.98;;;8.35;;
48098;SDS011;33877;47.444;18.934;2022-10-22T01:29:19;12.98;;;8.38;;
48098;SDS011;33877;47.444;18.934;2022-10-22T01:31:54;13.57;;;8.20;;
48098;SDS011;33877;47.444;18.934;2022-10-22T01:34:27;16.83;;;8.32;;
48098;SDS011;33877;47.444;18.934;2022-10-22T01:37:00;16.05;;;9.48;;
48098;SDS011;33877;47.444;18.934;2022-10-22T01:39:31;14.13;;;8.32;;
48098;SDS011;33877;47.444;18.934;2022-10-22T01:42:03;13.45;;;7.57;;
48098;SDS011;33877;47.444;18.934;2022-10-22T01:44:33;12.70;;;7.25;;
48098;SDS011;33877;47.444;18.934;2022-10-22T01:48:12;15.48;;;7.05;;
48098;SDS011;33877;47.444;18.934;2022-10-22T02:04:22;10.93;;;6.53;;
48098;SDS011;33877;47.444;18.934;2022-10-22T02:07:10;11.07;;;6.43;;
48098;SDS011;33877;47.444;18.934;2022-10-22T02:09:43;11.10;;;7.18;;
48098;SDS011;33877;47.444;18.934;2022-10-22T02:12:13;13.05;;;7.60;;
48098;SDS011;33877;47.444;18.934;2022-10-22T02:14:46;12.75;;;7.35;;
48098;SDS011;33877;47.444;18.934;2022-10-22T02:17:18;10.65;;;6.93;;
48098;SDS011;33877;47.444;18.934;2022-10-22T02:19:59;13.50;;;7.60;;
48098;SDS011;33877;47.444;18.934;2022-10-22T02:22:33;11.85;;;7.10;;
48098;SDS011;33877;47.444;18.934;2022-10-22T02:25:12;13.95;;;7.60;;
48098;SDS011;33877;47.444;18.934;2022-10-22T02:27:47;15.05;;;7.55;;
48098;SDS011;33877;47.444;18.934;2022-10-22T02:30:21;13.45;;;7.40;;
48098;SDS011;33877;47.444;18.934;2022-10-22T02:32:56;12.43;;;7.50;;
48098;SDS011;33877;47.444;18.934;2022-10-22T02:35:34;13.32;;;6.37;;
48098;SDS011;33877;47.444;18.934;2022-10-22T02:38:04;10.73;;;6.22;;
48098;SDS011;33877;47.444;18.934;2022-10-22T02:40:37;10.77;;;6.60;;
48098;SDS011;33877;47.444;18.934;2022-10-22T02:43:07;13.75;;;7.12;;
48098;SDS011;33877;47.444;18.934;2022-10-22T02:45:39;15.88;;;7.68;;
48098;SDS011;33877;47.444;18.934;2022-10-22T02:48:10;12.95;;;7.78;;
48098;SDS011;33877;47.444;18.934;2022-10-22T02:50:41;12.02;;;7.78;;
48098;SDS011;33877;47.444;18.934;2022-10-22T02:53:11;13.68;;;7.65;;
48098;SDS011;33877;47.444;18.934;2022-10-22T02:55:42;14.70;;;7.68;;
48098;SDS011;33877;47.444;18.934;2022-10-22T02:58:16;11.45;;;7.10;;
48098;SDS011;33877;47.444;18.934;2022-10-22T03:00:47;11.63;;;7.22;;
48098;SDS011;33877;47.444;18.934;2022-10-22T03:03:17;13.10;;;7.28;;
48098;SDS011;33877;47.444;18.934;2022-10-22T03:05:49;12.48;;;6.97;;
48098;SDS011;33877;47.444;18.934;2022-10-22T03:08:20;12.35;;;6.93;;
48098;SDS011;33877;47.444;18.934;2022-10-22T03:10:50;12.20;;;6.65;;
48098;SDS011;33877;47.444;18.934;2022-10-22T03:13:20;13.15;;;7.15;;
48098;SDS011;33877;47.444;18.934;2022-10-22T03:15:51;11.98;;;6.82;;
48098;SDS011;33877;47.444;18.934;2022-10-22T03:18:24;11.90;;;7.20;;
48098;SDS011;33877;47.444;18.934;2022-10-22T03:21:05;11.25;;;6.57;;
48098;SDS011;33877;47.444;18.934;2022-10-22T03:23:39;10.68;;;6.65;;
48098;SDS011;33877;47.444;18.934;2022-10-22T03:26:10;10.90;;;7.00;;
48098;SDS011;33877;47.444;18.934;2022-10-22T03:28:40;13.62;;;6.55;;
48098;SDS011;33877;47.444;18.934;2022-10-22T03:31:14;12.02;;;7.50;;
48098;SDS011;33877;47.444;18.934;2022-10-22T03:33:44;10.80;;;7.22;;
48098;SDS011;33877;47.444;18.934;2022-10-22T03:36:16;10.50;;;6.47;;
48098;SDS011;33877;47.444;18.934;2022-10-22T03:38:46;10.55;;;6.97;;
48098;SDS011;33877;47.444;18.934;2022-10-22T03:41:16;11.88;;;7.57;;
48098;SDS011;33877;47.444;18.934;2022-10-22T03:43:46;11.93;;;7.03;;
48098;SDS011;33877;47.444;18.934;2022-10-22T03:46:21;12.20;;;7.00;;
48098;SDS011;33877;47.444;18.934;2022-10-22T03:48:52;12.23;;;7.10;;
48098;SDS011;33877;47.444;18.934;2022-10-22T03:51:25;13.45;;;7.90;;
48098;SDS011;33877;47.444;18.934;2022-10-22T03:53:56;9.95;;;6.87;;
48098;SDS011;33877;47.444;18.934;2022-10-22T03:56:31;11.48;;;6.62;;
48098;SDS011;33877;47.444;18.934;2022-10-22T03:59:01;12.93;;;7.03;;
48098;SDS011;33877;47.444;18.934;2022-10-22T04:01:33;11.30;;;6.45;;
48098;SDS011;33877;47.444;18.934;2022-10-22T04:04:09;12.48;;;6.50;;
48098;SDS011;33877;47.444;18.934;2022-10-22T04:06:39;11.88;;;6.50;;
48098;SDS011;33877;47.444;18.934;2022-10-22T04:11:41;12.25;;;6.87;;
48098;SDS011;33877;47.444;18.934;2022-10-22T04:14:14;14.60;;;7.57;;
48098;SDS011;33877;47.444;18.934;2022-10-22T04:16:44;11.93;;;7.22;;
48098;SDS011;33877;47.444;18.934;2022-10-22T04:19:15;10.35;;;6.65;;
48098;SDS011;33877;47.444;18.934;2022-10-22T04:21:44;11.32;;;7.78;;
48098;SDS011;33877;47.444;18.934;2022-10-22T04:24:16;13.93;;;7.53;;
48098;SDS011;33877;47.444;18.934;2022-10-22T04:26:46;12.57;;;7.07;;
48098;SDS011;33877;47.444;18.934;2022-10-22T04:29:17;13.00;;;7.65;;
48098;SDS011;33877;47.444;18.934;2022-10-22T04:31:46;11.15;;;7.25;;
48098;SDS011;33877;47.444;18.934;2022-10-22T04:34:20;12.05;;;7.20;;
48098;SDS011;33877;47.444;18.934;2022-10-22T04:36:51;15.05;;;8.85;;
48098;SDS011;33877;47.444;18.934;2022-10-22T04:39:25;11.85;;;7.90;;
48098;SDS011;33877;47.444;18.934;2022-10-22T04:41:54;13.25;;;8.35;;
48098;SDS011;33877;47.444;18.934;2022-10-22T04:46:56;13.70;;;7.72;;
48098;SDS011;33877;47.444;18.934;2022-10-22T04:49:26;10.85;;;7.97;;
48098;SDS011;33877;47.444;18.934;2022-10-22T04:51:54;12.80;;;7.80;;
48098;SDS011;33877;47.444;18.934;2022-10-22T04:54:24;12.00;;;7.28;;
48098;SDS011;33877;47.444;18.934;2022-10-22T04:56:59;11.23;;;6.70;;
48098;SDS011;33877;47.444;18.934;2022-10-22T04:59:28;13.05;;;6.80;;
48098;SDS011;33877;47.444;18.934;2022-10-22T05:01:59;12.10;;;7.70;;
48098;SDS011;33877;47.444;18.934;2022-10-22T05:04:29;15.43;;;8.68;;
48098;SDS011;33877;47.444;18.934;2022-10-22T05:07:04;12.88;;;7.82;;
48098;SDS011;33877;47.444;18.934;2022-10-22T05:09:34;11.75;;;7.25;;
48098;SDS011;33877;47.444;18.934;2022-10-22T05:12:07;11.85;;;7.10;;
48098;SDS011;33877;47.444;18.934;2022-10-22T05:14:36;14.60;;;7.10;;
48098;SDS011;33877;47.444;18.934;2022-10-22T05:17:12;14.43;;;7.20;;
48098;SDS011;33877;47.444;18.934;2022-10-22T05:19:40;12.10;;;7.22;;
48098;SDS011;33877;47.444;18.934;2022-10-22T05:22:08;15.05;;;7.57;;
48098;SDS011;33877;47.444;18.934;2022-10-22T05:24:36;12.73;;;7.65;;
48098;SDS011;33877;47.444;18.934;2022-10-22T05:27:06;12.02;;;7.82;;
48098;SDS011;33877;47.444;18.934;2022-10-22T05:29:35;13.48;;;7.50;;
48098;SDS011;33877;47.444;18.934;2022-10-22T05:32:10;13.13;;;7.55;;
48098;SDS011;33877;47.444;18.934;2022-10-22T05:34:41;12.30;;;7.20;;
48098;SDS011;33877;47.444;18.934;2022-10-22T05:37:12;15.53;;;6.93;;
48098;SDS011;33877;47.444;18.934;2022-10-22T05:39:40;13.40;;;8.48;;
48098;SDS011;33877;47.444;18.934;2022-10-22T05:42:09;12.90;;;8.07;;
48098;SDS011;33877;47.444;18.934;2022-10-22T05:44:39;13.35;;;8.32;;
48098;SDS011;33877;47.444;18.934;2022-10-22T05:47:10;12.50;;;8.40;;
48098;SDS011;33877;47.444;18.934;2022-10-22T05:49:41;14.57;;;8.23;;
48098;SDS011;33877;47.444;18.934;2022-10-22T05:52:10;12.40;;;7.93;;
48098;SDS011;33877;47.444;18.934;2022-10-22T05:54:40;12.23;;;8.80;;
48098;SDS011;33877;47.444;18.934;2022-10-22T05:57:10;15.50;;;8.70;;
48098;SDS011;33877;47.444;18.934;2022-10-22T05:59:39;13.27;;;8.85;;
48098;SDS011;33877;47.444;18.934;2022-10-22T06:02:08;17.02;;;8.75;;
48098;SDS011;33877;47.444;18.934;2022-10-22T06:04:38;13.32;;;8.23;;
48098;SDS011;33877;47.444;18.934;2022-10-22T06:07:08;13.13;;;7.10;;
48098;SDS011;33877;47.444;18.934;2022-10-22T06:09:40;11.15;;;7.30;;
48098;SDS011;33877;47.444;18.934;2022-10-22T06:12:09;13.90;;;7.70;;
48098;SDS011;33877;47.444;18.934;2022-10-22T06:14:41;18.45;;;10.30;;
48098;SDS011;33877;47.444;18.934;2022-10-22T06:17:10;23.05;;;13.10;;
48098;SDS011;33877;47.444;18.934;2022-10-22T06:19:38;20.65;;;12.98;;
48098;SDS011;33877;47.444;18.934;2022-10-22T06:22:08;18.33;;;13.20;;
48098;SDS011;33877;47.444;18.934;2022-10-22T06:24:35;19.90;;;11.63;;
48098;SDS011;33877;47.444;18.934;2022-10-22T06:27:11;17.08;;;10.93;;
48098;SDS011;33877;47.444;18.934;2022-10-22T06:29:39;20.02;;;11.27;;
48098;SDS011;33877;47.444;18.934;2022-10-22T06:32:08;23.15;;;11.52;;
48098;SDS011;33877;47.444;18.934;2022-10-22T06:34:37;22.75;;;10.82;;
48098;SDS011;33877;47.444;18.934;2022-10-22T06:37:09;20.20;;;11.85;;
48098;SDS011;33877;47.444;18.934;2022-10-22T06:42:05;17.90;;;10.68;;
48098;SDS011;33877;47.444;18.934;2022-10-22T06:44:37;15.85;;;10.43;;
48098;SDS011;33877;47.444;18.934;2022-10-22T06:47:06;17.98;;;10.55;;
48098;SDS011;33877;47.444;18.934;2022-10-22T06:49:34;15.73;;;10.32;;
48098;SDS011;33877;47.444;18.934;2022-10-22T06:52:03;17.17;;;10.07;;
48098;SDS011;33877;47.444;18.934;2022-10-22T06:54:35;16.48;;;9.95;;
48098;SDS011;33877;47.444;18.934;2022-10-22T06:59:35;12.18;;;8.02;;
48098;SDS011;33877;47.444;18.934;2022-10-22T07:02:03;14.70;;;9.00;;
48098;SDS011;33877;47.444;18.934;2022-10-22T07:04:31;12.70;;;8.32;;
48098;SDS011;33877;47.444;18.934;2022-10-22T07:07:01;13.50;;;8.63;;
48098;SDS011;33877;47.444;18.934;2022-10-22T07:09:32;15.10;;;8.80;;
48098;SDS011;33877;47.444;18.934;2022-10-22T07:12:03;13.18;;;8.20;;
48098;SDS011;33877;47.444;18.934;2022-10-22T07:14:34;19.55;;;9.98;;
48098;SDS011;33877;47.444;18.934;2022-10-22T07:17:05;13.80;;;8.48;;
48098;SDS011;33877;47.444;18.934;2022-10-22T07:19:34;18.20;;;9.43;;
48098;SDS011;33877;47.444;18.934;2022-10-22T07:22:04;12.95;;;8.05;;
48098;SDS011;33877;47.444;18.934;2022-10-22T07:24:33;16.35;;;8.88;;
48098;SDS011;33877;47.444;18.934;2022-10-22T07:27:03;14.15;;;8.00;;
48098;SDS011;33877;47.444;18.934;2022-10-22T07:29:37;16.77;;;9.02;;
48098;SDS011;33877;47.444;18.934;2022-10-22T07:32:06;11.40;;;7.10;;
48098;SDS011;33877;47.444;18.934;2022-10-22T07:34:36;14.80;;;7.18;;
48098;SDS011;33877;47.444;18.934;2022-10-22T07:37:13;14.30;;;7.07;;
48098;SDS011;33877;47.444;18.934;2022-10-22T07:39:48;13.55;;;8.00;;
48098;SDS011;33877;47.444;18.934;2022-10-22T07:42:18;13.32;;;7.10;;
48098;SDS011;33877;47.444;18.934;2022-10-22T07:44:47;9.98;;;6.37;;
48098;SDS011;33877;47.444;18.934;2022-10-22T07:47:21;10.68;;;6.87;;
48098;SDS011;33877;47.444;18.934;2022-10-22T07:49:51;18.73;;;8.05;;
48098;SDS011;33877;47.444;18.934;2022-10-22T07:52:24;14.68;;;8.68;;
48098;SDS011;33877;47.444;18.934;2022-10-22T07:54:53;12.57;;;8.00;;
48098;SDS011;33877;47.444;18.934;2022-10-22T07:57:26;12.82;;;7.15;;
48098;SDS011;33877;47.444;18.934;2022-10-22T07:59:54;13.10;;;7.40;;
48098;SDS011;33877;47.444;18.934;2022-10-22T08:02:28;11.82;;;6.65;;
48098;SDS011;33877;47.444;18.934;2022-10-22T08:04:57;13.27;;;7.80;;
48098;SDS011;33877;47.444;18.934;2022-10-22T08:07:27;12.10;;;7.90;;
48098;SDS011;33877;47.444;18.934;2022-10-22T08:09:58;11.95;;;7.40;;
48098;SDS011;33877;47.444;18.934;2022-10-22T08:12:28;13.57;;;7.95;;
48098;SDS011;33877;47.444;18.934;2022-10-22T08:14:58;12.80;;;7.55;;
48098;SDS011;33877;47.444;18.934;2022-10-22T08:17:28;12.73;;;8.07;;
48098;SDS011;33877;47.444;18.934;2022-10-22T08:19:58;15.00;;;8.32;;
48098;SDS011;33877;47.444;18.934;2022-10-22T08:22:26;15.02;;;8.27;;
48098;SDS011;33877;47.444;18.934;2022-10-22T08:24:56;14.70;;;8.07;;
48098;SDS011;33877;47.444;18.934;2022-10-22T08:27:28;12.02;;;7.50;;
48098;SDS011;33877;47.444;18.934;2022-10-22T08:29:58;12.40;;;8.02;;
48098;SDS011;33877;47.444;18.934;2022-10-22T08:32:27;13.25;;;8.10;;
48098;SDS011;33877;47.444;18.934;2022-10-22T08:34:56;12.52;;;7.50;;
48098;SDS011;33877;47.444;18.934;2022-10-22T08:37:28;13.10;;;8.13;;
48098;SDS011;33877;47.444;18.934;2022-10-22T08:39:58;16.73;;;8.10;;
48098;SDS011;33877;47.444;18.934;2022-10-22T08:45:16;13.57;;;7.78;;
48098;SDS011;33877;47.444;18.934;2022-10-22T08:50:48;13.38;;;7.75;;
48098;SDS011;33877;47.444;18.934;2022-10-22T08:53:24;12.27;;;7.97;;
48098;SDS011;33877;47.444;18.934;2022-10-22T08:55:59;16.55;;;8.32;;
48098;SDS011;33877;47.444;18.934;2022-10-22T09:01:12;12.02;;;8.10;;
48098;SDS011;33877;47.444;18.934;2022-10-22T09:04:01;16.30;;;8.68;;
48098;SDS011;33877;47.444;18.934;2022-10-22T09:06:57;14.50;;;8.60;;
48098;SDS011;33877;47.444;18.934;2022-10-22T09:09:30;13.30;;;8.15;;
48098;SDS011;33877;47.444;18.934;2022-10-22T09:12:03;14.93;;;8.52;;
48098;SDS011;33877;47.444;18.934;2022-10-22T09:14:34;14.05;;;8.40;;
48098;SDS011;33877;47.444;18.934;2022-10-22T09:17:20;14.52;;;8.35;;
48098;SDS011;33877;47.444;18.934;2022-10-22T09:19:59;14.77;;;8.10;;
48098;SDS011;33877;47.444;18.934;2022-10-22T09:25:22;13.98;;;8.20;;
48098;SDS011;33877;47.444;18.934;2022-10-22T09:27:57;13.18;;;8.40;;
48098;SDS011;33877;47.444;18.934;2022-10-22T09:38:16;14.98;;;8.30;;
48098;SDS011;33877;47.444;18.934;2022-10-22T09:40:50;18.90;;;9.68;;
48098;SDS011;33877;47.444;18.934;2022-10-22T09:43:22;13.90;;;8.52;;
48098;SDS011;33877;47.444;18.934;2022-10-22T09:45:58;14.23;;;8.50;;
48098;SDS011;33877;47.444;18.934;2022-10-22T09:48:38;16.05;;;9.23;;
48098;SDS011;33877;47.444;18.934;2022-10-22T09:51:14;17.52;;;9.75;;
48098;SDS011;33877;47.444;18.934;2022-10-22T09:53:58;16.25;;;10.00;;
48098;SDS011;33877;47.444;18.934;2022-10-22T09:56:36;21.58;;;10.43;;
48098;SDS011;33877;47.444;18.934;2022-10-22T09:59:15;19.02;;;10.02;;
48098;SDS011;33877;47.444;18.934;2022-10-22T10:01:54;16.87;;;9.82;;
48098;SDS011;33877;47.444;18.934;2022-10-22T10:04:45;18.58;;;10.32;;
48098;SDS011;33877;47.444;18.934;2022-10-22T10:07:23;17.25;;;9.57;;
48098;SDS011;33877;47.444;18.934;2022-10-22T10:09:54;16.17;;;10.23;;
48098;SDS011;33877;47.444;18.934;2022-10-22T10:12:28;16.67;;;10.70;;
48098;SDS011;33877;47.444;18.934;2022-10-22T10:18:21;17.42;;;10.20;;
48098;SDS011;33877;47.444;18.934;2022-10-22T10:23:47;15.13;;;10.88;;
48098;SDS011;33877;47.444;18.934;2022-10-22T10:26:30;18.37;;;11.18;;
48098;SDS011;33877;47.444;18.934;2022-10-22T10:37:27;16.62;;;11.12;;
48098;SDS011;33877;47.444;18.934;2022-10-22T10:40:10;17.17;;;10.27;;
48098;SDS011;33877;47.444;18.934;2022-10-22T10:43:08;17.25;;;11.30;;
48098;SDS011;33877;47.444;18.934;2022-10-22T10:45:43;19.52;;;11.65;;
48098;SDS011;33877;47.444;18.934;2022-10-22T10:56:42;20.17;;;11.90;;
48098;SDS011;33877;47.444;18.934;2022-10-22T10:59:32;16.02;;;10.70;;
48098;SDS011;33877;47.444;18.934;2022-10-22T11:05:10;18.58;;;11.20;;
48098;SDS011;33877;47.444;18.934;2022-10-22T11:07:50;18.20;;;12.18;;
48098;SDS011;33877;47.444;18.934;2022-10-22T11:10:36;16.98;;;11.75;;
48098;SDS011;33877;47.444;18.934;2022-10-22T11:13:18;16.60;;;10.80;;
48098;SDS011;33877;47.444;18.934;2022-10-22T11:16:09;19.17;;;11.27;;
48098;SDS011;33877;47.444;18.934;2022-10-22T11:21:28;17.73;;;10.93;;
48098;SDS011;33877;47.444;18.934;2022-10-22T11:26:50;18.08;;;12.18;;
48098;SDS011;33877;47.444;18.934;2022-10-22T11:29:30;21.93;;;12.43;;
48098;SDS011;33877;47.444;18.934;2022-10-22T11:32:02;20.00;;;12.80;;
48098;SDS011;33877;47.444;18.934;2022-10-22T11:35:07;17.45;;;12.10;;
48098;SDS011;33877;47.444;18.934;2022-10-22T11:37:29;22.23;;;11.43;;
48098;SDS011;33877;47.444;18.934;2022-10-22T11:40:04;16.45;;;11.12;;
48098;SDS011;33877;47.444;18.934;2022-10-22T11:42:40;20.37;;;11.63;;
48098;SDS011;33877;47.444;18.934;2022-10-22T11:50:21;20.48;;;12.10;;
48098;SDS011;33877;47.444;18.934;2022-10-22T11:53:01;21.02;;;12.02;;
48098;SDS011;33877;47.444;18.934;2022-10-22T11:55:33;16.92;;;12.32;;
48098;SDS011;33877;47.444;18.934;2022-10-22T11:58:22;19.73;;;11.80;;
48098;SDS011;33877;47.444;18.934;2022-10-22T12:03:40;18.17;;;12.37;;
48098;SDS011;33877;47.444;18.934;2022-10-22T12:14:16;18.83;;;12.43;;
48098;SDS011;33877;47.444;18.934;2022-10-22T12:19:36;18.62;;;11.82;;
48098;SDS011;33877;47.444;18.934;2022-10-22T12:22:17;17.08;;;11.93;;
48098;SDS011;33877;47.444;18.934;2022-10-22T12:24:49;18.67;;;11.73;;
48098;SDS011;33877;47.444;18.934;2022-10-22T12:29:55;19.67;;;11.05;;
48098;SDS011;33877;47.444;18.934;2022-10-22T12:32:31;21.05;;;12.43;;
48098;SDS011;33877;47.444;18.934;2022-10-22T12:35:05;21.70;;;11.55;;
48098;SDS011;33877;47.444;18.934;2022-10-22T12:37:37;21.10;;;11.63;;
48098;SDS011;33877;47.444;18.934;2022-10-22T12:40:17;16.02;;;11.07;;
48098;SDS011;33877;47.444;18.934;2022-10-22T12:42:57;18.92;;;11.70;;
48098;SDS011;33877;47.444;18.934;2022-10-22T12:45:29;16.08;;;11.23;;
48098;SDS011;33877;47.444;18.934;2022-10-22T12:48:05;21.55;;;12.27;;
48098;SDS011;33877;47.444;18.934;2022-10-22T12:50:39;16.87;;;11.98;;
48098;SDS011;33877;47.444;18.934;2022-10-22T12:55:47;19.05;;;12.07;;
48098;SDS011;33877;47.444;18.934;2022-10-22T12:58:19;18.42;;;12.18;;
48098;SDS011;33877;47.444;18.934;2022-10-22T13:00:51;21.62;;;12.70;;
48098;SDS011;33877;47.444;18.934;2022-10-22T13:03:26;23.95;;;12.15;;
48098;SDS011;33877;47.444;18.934;2022-10-22T13:05:56;18.17;;;12.23;;
48098;SDS011;33877;47.444;18.934;2022-10-22T13:08:36;22.92;;;12.90;;
48098;SDS011;33877;47.444;18.934;2022-10-22T13:11:07;18.77;;;13.20;;
48098;SDS011;33877;47.444;18.934;2022-10-22T13:18:43;18.75;;;12.70;;
48098;SDS011;33877;47.444;18.934;2022-10-22T13:23:55;18.95;;;13.05;;
48098;SDS011;33877;47.444;18.934;2022-10-22T13:26:31;25.02;;;12.73;;
48098;SDS011;33877;47.444;18.934;2022-10-22T13:29:02;19.05;;;12.07;;
48098;SDS011;33877;47.444;18.934;2022-10-22T13:31:43;17.33;;;11.55;;
48098;SDS011;33877;47.444;18.934;2022-10-22T13:34:14;20.70;;;12.68;;
48098;SDS011;33877;47.444;18.934;2022-10-22T13:36:46;19.25;;;12.88;;
48098;SDS011;33877;47.444;18.934;2022-10-22T13:39:23;20.33;;;12.90;;
48098;SDS011;33877;47.444;18.934;2022-10-22T13:41:52;24.12;;;13.35;;
48098;SDS011;33877;47.444;18.934;2022-10-22T13:44:21;16.17;;;11.98;;
48098;SDS011;33877;47.444;18.934;2022-10-22T13:46:49;19.33;;;12.57;;
48098;SDS011;33877;47.444;18.934;2022-10-22T13:49:19;23.27;;;12.68;;
48098;SDS011;33877;47.444;18.934;2022-10-22T13:51:49;18.67;;;11.50;;
48098;SDS011;33877;47.444;18.934;2022-10-22T13:54:19;19.15;;;12.30;;
48098;SDS011;33877;47.444;18.934;2022-10-22T13:56:50;17.90;;;11.25;;
48098;SDS011;33877;47.444;18.934;2022-10-22T13:59:20;18.77;;;11.20;;
48098;SDS011;33877;47.444;18.934;2022-10-22T14:01:50;18.58;;;12.35;;
48098;SDS011;33877;47.444;18.934;2022-10-22T14:04:19;16.92;;;11.82;;
48098;SDS011;33877;47.444;18.934;2022-10-22T14:06:47;19.85;;;11.65;;
48098;SDS011;33877;47.444;18.934;2022-10-22T14:09:20;20.02;;;11.65;;
48098;SDS011;33877;47.444;18.934;2022-10-22T14:11:49;15.85;;;10.57;;
48098;SDS011;33877;47.444;18.934;2022-10-22T14:14:17;17.65;;;11.18;;
48098;SDS011;33877;47.444;18.934;2022-10-22T14:16:45;16.35;;;10.50;;
48098;SDS011;33877;47.444;18.934;2022-10-22T14:19:15;20.80;;;10.38;;
48098;SDS011;33877;47.444;18.934;2022-10-22T14:21:44;16.33;;;10.65;;
48098;SDS011;33877;47.444;18.934;2022-10-22T14:24:11;17.02;;;10.13;;
48098;SDS011;33877;47.444;18.934;2022-10-22T14:26:40;17.62;;;10.15;;
48098;SDS011;33877;47.444;18.934;2022-10-22T14:29:08;15.93;;;10.27;;
48098;SDS011;33877;47.444;18.934;2022-10-22T14:31:38;16.42;;;10.52;;
48098;SDS011;33877;47.444;18.934;2022-10-22T14:34:10;16.20;;;10.60;;
48098;SDS011;33877;47.444;18.934;2022-10-22T14:36:39;22.15;;;11.52;;
48098;SDS011;33877;47.444;18.934;2022-10-22T14:39:12;18.67;;;10.65;;
48098;SDS011;33877;47.444;18.934;2022-10-22T14:41:41;18.25;;;12.63;;
48098;SDS011;33877;47.444;18.934;2022-10-22T14:44:11;22.30;;;11.90;;
48098;SDS011;33877;47.444;18.934;2022-10-22T14:46:41;18.45;;;11.80;;
48098;SDS011;33877;47.444;18.934;2022-10-22T14:49:12;18.30;;;11.07;;
48098;SDS011;33877;47.444;18.934;2022-10-22T14:51:40;24.25;;;11.18;;
48098;SDS011;33877;47.444;18.934;2022-10-22T14:54:09;16.85;;;9.77;;
48098;SDS011;33877;47.444;18.934;2022-10-22T14:56:38;16.65;;;10.18;;
48098;SDS011;33877;47.444;18.934;2022-10-22T14:59:06;13.68;;;9.45;;
48098;SDS011;33877;47.444;18.934;2022-10-22T15:01:34;14.32;;;9.73;;
48098;SDS011;33877;47.444;18.934;2022-10-22T15:04:03;20.45;;;10.50;;
48098;SDS011;33877;47.444;18.934;2022-10-22T15:06:31;16.48;;;9.52;;
48098;SDS011;33877;47.444;18.934;2022-10-22T15:09:00;13.90;;;10.07;;
48098;SDS011;33877;47.444;18.934;2022-10-22T15:11:29;14.25;;;9.25;;
48098;SDS011;33877;47.444;18.934;2022-10-22T15:13:57;16.48;;;10.52;;
48098;SDS011;33877;47.444;18.934;2022-10-22T15:16:25;15.80;;;9.60;;
48098;SDS011;33877;47.444;18.934;2022-10-22T15:18:54;13.07;;;9.32;;
48098;SDS011;33877;47.444;18.934;2022-10-22T15:21:23;14.40;;;8.82;;
48098;SDS011;33877;47.444;18.934;2022-10-22T15:23:52;16.62;;;10.10;;
48098;SDS011;33877;47.444;18.934;2022-10-22T15:26:21;16.02;;;9.68;;
48098;SDS011;33877;47.444;18.934;2022-10-22T15:28:49;12.63;;;9.15;;
48098;SDS011;33877;47.444;18.934;2022-10-22T15:31:17;13.73;;;9.52;;
48098;SDS011;33877;47.444;18.934;2022-10-22T15:34:34;15.35;;;9.40;;
48098;SDS011;33877;47.444;18.934;2022-10-22T15:37:04;14.18;;;9.40;;
48098;SDS011;33877;47.444;18.934;2022-10-22T15:39:34;17.03;;;11.57;;
48098;SDS011;33877;47.444;18.934;2022-10-22T15:42:02;16.85;;;9.90;;
48098;SDS011;33877;47.444;18.934;2022-10-22T15:44:32;18.00;;;10.48;;
48098;SDS011;33877;47.444;18.934;2022-10-22T15:47:02;15.05;;;10.10;;
48098;SDS011;33877;47.444;18.934;2022-10-22T15:49:35;17.52;;;10.75;;
48098;SDS011;33877;47.444;18.934;2022-10-22T15:54:33;17.80;;;11.07;;
48098;SDS011;33877;47.444;18.934;2022-10-22T15:57:03;16.23;;;10.70;;
48098;SDS011;33877;47.444;18.934;2022-10-22T15:59:36;20.48;;;13.05;;
48098;SDS011;33877;47.444;18.934;2022-10-22T16:02:04;17.30;;;12.57;;
48098;SDS011;33877;47.444;18.934;2022-10-22T16:04:34;24.30;;;15.98;;
48098;SDS011;33877;47.444;18.934;2022-10-22T16:07:02;22.45;;;14.35;;
48098;SDS011;33877;47.444;18.934;2022-10-22T16:09:31;22.17;;;15.13;;
48098;SDS011;33877;47.444;18.934;2022-10-22T16:11:59;21.50;;;14.48;;
48098;SDS011;33877;47.444;18.934;2022-10-22T16:14:28;21.85;;;12.93;;
48098;SDS011;33877;47.444;18.934;2022-10-22T16:16:58;19.90;;;13.75;;
48098;SDS011;33877;47.444;18.934;2022-10-22T16:19:26;21.35;;;13.50;;
48098;SDS011;33877;47.444;18.934;2022-10-22T16:21:55;18.60;;;13.02;;
48098;SDS011;33877;47.444;18.934;2022-10-22T16:24:23;17.87;;;13.05;;
48098;SDS011;33877;47.444;18.934;2022-10-22T16:26:52;21.00;;;14.85;;
48098;SDS011;33877;47.444;18.934;2022-10-22T16:29:20;20.40;;;14.13;;
48098;SDS011;33877;47.444;18.934;2022-10-22T16:31:49;22.95;;;14.18;;
48098;SDS011;33877;47.444;18.934;2022-10-22T16:34:19;19.67;;;13.85;;
48098;SDS011;33877;47.444;18.934;2022-10-22T16:36:48;17.95;;;14.40;;
48098;SDS011;33877;47.444;18.934;2022-10-22T16:39:18;21.40;;;15.07;;
48098;SDS011;33877;47.444;18.934;2022-10-22T16:41:46;23.38;;;14.68;;
48098;SDS011;33877;47.444;18.934;2022-10-22T16:44:14;18.75;;;13.88;;